Nearby METAR Reports

 

GCLP - Las Palmas/Gando, Spain
Distance from station: NE 26km
Updated: 18/07/2018 23:30
Few Clouds
Few Clouds
 Wind from N
Wind: N 41 km/h
Temperature: 22°C
Dew Point: 17°C
Humidity: 73%
Barometer: 1017 hPa
Clouds: Few Clouds
Visibility: 10 km
Cloud details: Few Clouds 610 m
2018/07/18 23:30 GCLP 182330Z 01022KT 9999 FEW020 22/17 Q1017 NOSIG
GCTS - Tenerife Sur/Rei, Spain
Distance from station: WNW 102km
Updated: 18/07/2018 23:30
Few Clouds
Few Clouds
 Wind from ENE
Wind: ENE 31 km/h
Temperature: 21°C
Dew Point: 17°C
Humidity: 78%
Barometer: 1017 hPa
Clouds: Few Clouds
Visibility: 10 km
Cloud details: Few Clouds 610 m
2018/07/18 23:30 GCTS 182330Z 06017KT 9999 FEW020 21/17 Q1017 NOSIG
 
GCXO - Tenerife/Los Rod, Spain
Distance from station: NW 110km
Updated: 18/07/2018 23:30
Partly cloudy
Partly cloudy
 Wind from W
Wind: W 20 km/h
Temperature: 16°C
Dew Point: 15°C
Humidity: 94%
Barometer: 1020 hPa
Clouds: Partly cloudy
Visibility: 10 km
Cloud details: Partly cloudy 183 m
2018/07/18 23:30 GCXO 182330Z AUTO 28011KT 9999 SCT006/// 16/15 Q1020
GCGM - La Gomera Arpt, Spain
Distance from station: W 164km
Updated: 18/07/2018 23:30
Clear
Clear
 Wind from WSW
Wind: WSW 7 km/h
Temperature: 20°C
Dew Point: 18°C
Humidity: 88%
Barometer: 1018 hPa
Clouds: Clear
Visibility: 10 km
2018/07/18 23:30 GCGM 182330Z AUTO 24004KT 9999 NCD 20/18 Q1018 RMK R09/24004KT ARP/25003KT 210V280
 
GCFV - Fuerteventura Ar, Spain
Distance from station: ENE 183km
Updated: 18/07/2018 23:30
Clear
Clear
 Wind from NNE
Wind: NNE 28 km/h
Temperature: 22°C
Dew Point: 19°C
Humidity: 83%
Barometer: 1017 hPa
Clouds: Clear
Visibility: 10 km
2018/07/18 23:30 GCFV 182330Z AUTO 03015KT 9999 NCD 22/19 Q1017
GCHI - Hierro Airport, Spain
Distance from station: W 226km
Updated: 18/07/2018 23:30
Few Clouds
Few Clouds
 Wind from N
Wind: N 22 km/h
Temperature: 22°C
Dew Point: 18°C
Humidity: 78%
Barometer: 1018 hPa
Clouds: Few Clouds
Visibility: 10 km
Cloud details: Few Clouds 610 m
2018/07/18 23:30 GCHI 182330Z AUTO 36012KT 330V030 9999 FEW020/// 22/18 Q1018
 
GCLA - La Palma Airport, Spain
Distance from station: WNW 233km
Updated: 18/07/2018 23:30
Few Clouds
Few Clouds
 Wind from N
Wind: N 22 km/h
Temperature: 21°C
Dew Point: 18°C
Humidity: 83%
Barometer: 1019 hPa
Clouds: Few Clouds
Visibility: 10 km
Cloud details: Few Clouds 884 m
2018/07/18 23:30 GCLA 182330Z AUTO 36012KT 9999 FEW029/// 21/18 Q1019
GCRR - Arrecife/Lanzaro, Spain
Distance from station: NE 234km
Updated: 18/07/2018 23:30
Few Clouds
Few Clouds
 Wind from N
Wind: N 28 km/h
Temperature: 21°C
Dew Point: 18°C
Humidity: 83%
Barometer: 1017 hPa
Clouds: Few Clouds
Visibility: 10 km
Cloud details: Few Clouds 762 m
2018/07/18 23:30 GCRR 182330Z 01015KT 9999 FEW025 21/18 Q1017
 
LPMA - Funchal/Madeira, Portugal
Distance from station: NNW 556km
Updated: 18/07/2018 23:30
Partly cloudy
Partly cloudy
 Wind from N
Wind: N 17 km/h
Temperature: 21°C
Dew Point: 14°C
Humidity: 64%
Barometer: 1021 hPa
Clouds: Partly cloudy
Visibility: 10 km
Cloud details: Partly cloudy 488 m
2018/07/18 23:30 LPMA 182330Z 36009KT 320V030 9999 SCT016 21/14 Q1021
LPPS - Porto Santo Isla, Portugal
Distance from station: N 594km
Updated: 18/07/2018 23:30
Partly cloudy
Partly cloudy
 Wind from NE
Wind: NE 9 km/h
Temperature: 21°C
Dew Point: 14°C
Humidity: 64%
Barometer: 1021 hPa
Clouds: Partly cloudy
Visibility: 10 km
Cloud details: Partly cloudy 396 m
2018/07/18 23:30 LPPS 182330Z 04005KT 360V080 9999 SCT013 21/14 Q1021